createdAt,value
2019-01-03T00:02:35.603Z,103381.63
2019-01-03T00:05:29.779Z,103389.81
2019-01-03T00:08:20.907Z,103381.65
2019-01-03T00:11:08.256Z,103383.34
2019-01-03T00:14:14.635Z,103386.81
2019-01-03T00:17:03.244Z,103389.41
2019-01-03T00:20:00.438Z,103390.69
2019-01-03T00:22:47.591Z,103391.99
2019-01-03T00:25:34.601Z,103394.58
2019-01-03T00:28:27.623Z,103393.28
2019-01-03T00:31:18.699Z,103398.48
2019-01-03T00:34:15.967Z,103399.30
2019-01-03T00:37:09.872Z,103398.86
2019-01-03T00:39:57.282Z,103397.62
2019-01-03T00:42:58.890Z,103404.50
2019-01-03T00:45:52.941Z,103406.65
2019-01-03T00:48:52.279Z,103411.81
2019-01-03T00:51:40.362Z,103408.81
2019-01-03T00:54:34.034Z,103410.09
2019-01-03T00:57:20.764Z,103417.45
2019-01-03T01:00:07.863Z,103428.21
2019-01-03T01:02:54.889Z,103430.74
2019-01-03T01:05:41.903Z,103436.42
2019-01-03T01:08:39.347Z,103440.30
2019-01-03T01:11:32.790Z,103443.73
2019-01-03T01:14:30.247Z,103443.32
2019-01-03T01:17:14.900Z,103437.27
2019-01-03T01:20:02.673Z,103433.41
2019-01-03T01:23:02.644Z,103438.12
2019-01-03T01:25:54.206Z,103447.58
2019-01-03T01:28:41.217Z,103428.69
2019-01-03T01:31:38.582Z,103443.75
2019-01-03T01:34:29.726Z,103444.17
2019-01-03T01:37:36.230Z,103439.86
2019-01-03T01:40:23.293Z,103440.33
2019-01-03T01:43:10.409Z,103441.99
2019-01-03T01:45:57.400Z,103438.58
2019-01-03T01:48:54.745Z,103438.98
2019-01-03T01:51:42.840Z,103442.86
2019-01-03T01:54:29.644Z,103447.63
2019-01-03T01:57:23.819Z,103445.04
2019-01-03T02:00:20.952Z,103443.75
2019-01-03T02:03:08.304Z,103445.44
2019-01-03T02:05:53.469Z,103437.72
2019-01-03T02:09:00.502Z,103434.28
2019-01-03T02:11:59.259Z,103435.58
2019-01-03T02:14:48.076Z,103439.41
2019-01-03T02:17:39.294Z,103434.66
2019-01-03T02:20:42.697Z,103443.33
2019-01-03T02:23:41.064Z,103437.72
2019-01-03T02:26:41.506Z,103434.70
2019-01-03T02:29:28.586Z,103433.84
2019-01-03T02:32:24.274Z,103425.20
2019-01-03T02:35:21.612Z,103426.09
2019-01-03T02:38:08.520Z,103422.64
2019-01-03T02:41:00.322Z,103422.63
2019-01-03T02:43:57.597Z,103422.20
2019-01-03T02:46:47.261Z,103417.88
2019-01-03T02:49:35.351Z,103412.27
2019-01-03T02:52:29.585Z,103421.74
2019-01-03T02:55:33.047Z,103426.92
2019-01-03T02:58:19.964Z,103419.60
2019-01-03T03:01:06.512Z,103420.45
2019-01-03T03:03:53.617Z,103422.62
2019-01-03T03:06:45.009Z,103420.45
2019-01-03T03:09:51.500Z,103414.39
2019-01-03T03:12:59.377Z,103421.34
2019-01-03T03:16:02.610Z,103408.38
2019-01-03T03:18:56.174Z,103416.58
2019-01-03T03:21:44.249Z,103414.39
2019-01-03T03:24:30.308Z,103418.23
2019-01-03T03:27:18.498Z,103420.84
2019-01-03T03:30:06.617Z,103416.96
2019-01-03T03:33:07.141Z,103418.27
2019-01-03T03:36:13.444Z,103419.54
2019-01-03T03:39:07.528Z,103422.12
2019-01-03T03:41:58.797Z,103422.11
2019-01-03T03:44:49.667Z,103418.22
2019-01-03T03:47:48.825Z,103413.02
2019-01-03T03:50:39.992Z,103416.92
2019-01-03T03:53:44.369Z,103420.34
2019-01-03T03:56:28.169Z,103419.50
2019-01-03T03:59:25.480Z,103419.48
2019-01-03T04:02:07.266Z,103422.51
2019-01-03T04:04:54.291Z,103419.94
2019-01-03T04:07:48.379Z,103416.05
2019-01-03T04:10:39.878Z,103413.91
2019-01-03T04:13:30.821Z,103407.87
2019-01-03T04:16:30.021Z,103399.23
2019-01-03T04:19:30.341Z,103412.61
2019-01-03T04:22:17.475Z,103409.98
2019-01-03T04:25:05.546Z,103403.12
2019-01-03T04:28:09.851Z,103408.27
2019-01-03T04:31:08.503Z,103409.15
2019-01-03T04:34:09.296Z,103412.55
2019-01-03T04:36:56.064Z,103411.69
2019-01-03T04:39:59.297Z,103403.52
2019-01-03T04:42:57.945Z,103400.53
2019-01-03T04:45:48.862Z,103406.55
2019-01-03T04:48:40.022Z,103408.70
2019-01-03T04:51:27.015Z,103413.79
2019-01-03T04:54:18.011Z,103407.81
2019-01-03T04:57:05.168Z,103413.81
2019-01-03T04:59:52.057Z,103413.88
2019-01-03T05:02:34.008Z,103405.27
2019-01-03T05:05:22.111Z,103400.96
2019-01-03T05:08:08.779Z,103407.38
2019-01-03T05:10:59.686Z,103412.90
2019-01-03T05:13:53.507Z,103408.19
2019-01-03T05:16:40.324Z,103402.13
2019-01-03T05:19:27.533Z,103412.08
2019-01-03T05:22:14.457Z,103406.43
2019-01-03T05:25:02.007Z,103413.79
2019-01-03T05:28:02.457Z,103411.18
2019-01-03T05:31:08.909Z,103409.89
2019-01-03T05:34:09.332Z,103401.70
2019-01-03T05:36:57.512Z,103399.14
2019-01-03T05:39:48.702Z,103405.13
2019-01-03T05:42:46.133Z,103405.13
2019-01-03T05:45:49.712Z,103402.06
2019-01-03T05:48:45.842Z,103409.74
2019-01-03T05:51:43.067Z,103410.99
2019-01-03T05:54:26.217Z,103410.58
2019-01-03T05:57:28.639Z,103408.86
2019-01-03T06:00:15.681Z,103404.08
2019-01-03T06:03:22.503Z,103412.30
2019-01-03T06:06:19.412Z,103412.33
2019-01-03T06:09:02.254Z,103413.95
2019-01-03T06:11:53.360Z,103416.18
2019-01-03T06:14:40.929Z,103411.06
2019-01-03T06:17:36.174Z,103414.51
2019-01-03T06:20:30.496Z,103409.78
2019-01-03T06:23:18.571Z,103403.30
2019-01-03T06:26:16.129Z,103404.17
2019-01-03T06:29:03.045Z,103404.12
2019-01-03T06:32:03.570Z,103414.08
2019-01-03T06:35:03.788Z,103414.53
2019-01-03T06:37:50.756Z,103411.07
2019-01-03T06:40:48.641Z,103411.93
2019-01-03T06:43:35.810Z,103426.09
2019-01-03T06:46:22.709Z,103414.39
2019-01-03T06:49:16.994Z,103414.38
2019-01-03T06:52:04.089Z,103415.70
2019-01-03T06:54:49.071Z,103410.58
2019-01-03T06:57:42.293Z,103414.06
2019-01-03T07:00:29.458Z,103417.96
2019-01-03T07:03:16.452Z,103422.72
2019-01-03T07:06:23.045Z,103421.84
2019-01-03T07:09:10.031Z,103429.17
2019-01-03T07:11:58.110Z,103432.20
2019-01-03T07:14:42.339Z,103436.47
2019-01-03T07:17:29.860Z,103443.45
2019-01-03T07:20:16.687Z,103438.28
2019-01-03T07:23:08.706Z,103438.23
2019-01-03T07:25:55.702Z,103439.14
2019-01-03T07:28:43.197Z,103445.14
2019-01-03T07:31:37.560Z,103446.84
2019-01-03T07:34:18.110Z,103449.41
2019-01-03T07:37:05.186Z,103452.00
2019-01-03T07:40:02.468Z,103459.77
2019-01-03T07:42:54.349Z,103459.38
2019-01-03T07:45:41.313Z,103455.98
2019-01-03T07:48:28.386Z,103457.25
2019-01-03T07:51:20.671Z,103453.81
2019-01-03T07:54:07.999Z,103454.22
2019-01-03T07:56:55.343Z,103462.41
2019-01-03T07:59:42.404Z,103463.34
2019-01-03T08:02:29.353Z,103465.07
2019-01-03T08:05:15.314Z,103462.52
2019-01-03T08:08:09.300Z,103464.20
2019-01-03T08:11:09.707Z,103471.52
2019-01-03T08:14:05.055Z,103474.89
2019-01-03T08:16:51.809Z,103473.75
2019-01-03T08:19:46.148Z,103479.31
2019-01-03T08:22:33.325Z,103480.63
2019-01-03T08:25:20.497Z,103478.44
2019-01-03T08:28:17.747Z,103484.44
2019-01-03T08:31:04.414Z,103487.52
2019-01-03T08:34:07.656Z,103479.29
2019-01-03T08:37:12.361Z,103482.78
2019-01-03T08:40:06.410Z,103482.76
2019-01-03T08:43:00.249Z,103488.88
2019-01-03T08:45:48.346Z,103498.86
2019-01-03T08:49:00.382Z,103493.63
2019-01-03T08:51:43.562Z,103506.93
2019-01-03T08:54:31.696Z,103516.44
2019-01-03T08:57:19.766Z,103504.95
2019-01-03T09:00:06.613Z,103508.84
2019-01-03T09:02:53.592Z,103508.38
2019-01-03T09:05:40.357Z,103512.75
2019-01-03T09:08:27.103Z,103513.55
2019-01-03T09:11:24.571Z,103507.55
2019-01-03T09:14:12.195Z,103505.91
2019-01-03T09:17:13.980Z,103504.11
2019-01-03T09:20:05.074Z,103508.06
2019-01-03T09:22:53.462Z,103509.00
2019-01-03T09:25:47.749Z,103512.36
2019-01-03T09:28:35.868Z,103513.73
2019-01-03T09:31:22.625Z,103508.15
2019-01-03T09:34:16.712Z,103515.06
2019-01-03T09:37:03.696Z,103509.05
2019-01-03T09:39:50.868Z,103510.31
2019-01-03T09:42:37.951Z,103513.64
2019-01-03T09:45:07.286Z,103514.52
2019-01-03T09:47:36.442Z,103513.31
2019-01-03T09:50:05.941Z,103507.69
2019-01-03T09:52:35.137Z,103502.62
2019-01-03T09:55:04.311Z,103504.80
2019-01-03T09:57:33.441Z,103504.44
2019-01-03T10:00:02.758Z,103507.42
2019-01-03T10:02:31.898Z,103507.33
2019-01-03T10:05:03.113Z,103513.86
2019-01-03T10:07:32.288Z,103511.34
2019-01-03T10:10:02.224Z,103507.00
2019-01-03T10:12:31.589Z,103511.67
2019-01-03T10:15:00.760Z,103507.39
2019-01-03T10:17:29.916Z,103502.25
2019-01-03T10:19:59.426Z,103504.87
2019-01-03T10:22:29.862Z,103506.09
2019-01-03T10:24:59.095Z,103506.94
2019-01-03T10:27:28.757Z,103509.11
2019-01-03T10:29:57.966Z,103496.59
2019-01-03T10:32:27.099Z,103492.34
2019-01-03T10:34:56.383Z,103487.97
2019-01-03T10:37:25.552Z,103490.11
2019-01-03T10:39:54.740Z,103481.97
2019-01-03T10:42:23.914Z,103478.91
2019-01-03T10:44:53.037Z,103479.86
2019-01-03T10:47:22.219Z,103476.05
2019-01-03T10:49:51.494Z,103475.20
2019-01-03T10:52:20.645Z,103476.51
2019-01-03T10:54:49.791Z,103475.63
2019-01-03T10:57:18.952Z,103476.09
2019-01-03T10:59:48.129Z,103473.05
2019-01-03T11:02:17.296Z,103473.45
2019-01-03T11:04:46.491Z,103467.42
2019-01-03T11:07:15.674Z,103471.76
2019-01-03T11:09:44.850Z,103469.14
2019-01-03T11:12:13.967Z,103470.45
2019-01-03T11:14:43.116Z,103463.54
2019-01-03T11:17:12.264Z,103458.34
2019-01-03T11:19:41.437Z,103463.97
2019-01-03T11:22:10.641Z,103458.77
2019-01-03T11:24:39.796Z,103463.55
2019-01-03T11:27:08.912Z,103464.41
2019-01-03T11:29:38.269Z,103463.55
2019-01-03T11:32:07.676Z,103457.44
2019-01-03T11:37:12.523Z,103454.44
2019-01-03T11:39:41.784Z,103456.59
2019-01-03T11:42:10.923Z,103460.50
2019-01-03T11:44:40.080Z,103457.06
2019-01-03T11:47:09.225Z,103453.16
2019-01-03T11:49:38.581Z,103452.70
2019-01-03T11:52:07.779Z,103450.55
2019-01-03T11:54:37.248Z,103436.66
2019-01-03T11:57:06.388Z,103435.80
2019-01-03T11:59:35.553Z,103435.80
2019-01-03T12:02:04.812Z,103439.30
2019-01-03T12:04:33.955Z,103434.11
2019-01-03T12:07:03.223Z,103437.16
2019-01-03T12:09:32.464Z,103438.44
2019-01-03T12:12:01.685Z,103443.63
2019-01-03T12:14:31.131Z,103431.52
2019-01-03T12:17:00.770Z,103436.23
2019-01-03T12:19:30.234Z,103427.58
2019-01-03T12:21:59.479Z,103425.38
2019-01-03T12:24:30.827Z,103427.10
2019-01-03T12:26:59.636Z,103438.73
2019-01-03T12:29:28.769Z,103436.23
2019-01-03T12:31:58.066Z,103430.60
2019-01-03T12:34:27.236Z,103432.34
2019-01-03T12:36:56.418Z,103431.86
2019-01-03T12:39:25.592Z,103432.77
2019-01-03T12:41:54.770Z,103449.68
2019-01-03T12:44:24.022Z,103450.55
2019-01-03T12:46:53.205Z,103442.72
2019-01-03T12:49:22.334Z,103443.59
2019-01-03T12:51:51.495Z,103450.55
2019-01-03T12:54:20.655Z,103453.59
2019-01-03T12:56:49.819Z,103462.22
2019-01-03T12:59:19.010Z,103452.28
2019-01-03T13:01:48.171Z,103453.58
2019-01-03T13:04:17.609Z,103451.84
2019-01-03T13:06:46.766Z,103445.79
2019-01-03T13:09:18.496Z,103443.63
2019-01-03T13:11:49.038Z,103431.52
2019-01-03T13:14:18.181Z,103428.87
2019-01-03T13:16:47.439Z,103421.04
2019-01-03T13:19:17.142Z,103419.41
2019-01-03T13:21:46.616Z,103415.48
2019-01-03T13:24:15.777Z,103408.50
2019-01-03T13:26:44.905Z,103411.39
2019-01-03T13:29:14.249Z,103409.22
2019-01-03T13:31:43.400Z,103409.56
2019-01-03T13:34:12.646Z,103410.50
2019-01-03T13:36:41.826Z,103407.45
2019-01-03T13:39:10.993Z,103405.73
2019-01-03T13:41:40.233Z,103414.85
2019-01-03T13:44:09.394Z,103411.88
2019-01-03T13:46:38.547Z,103407.61
2019-01-03T13:49:07.978Z,103407.98
2019-01-03T13:51:37.197Z,103407.17
2019-01-03T13:54:06.442Z,103420.97
2019-01-03T13:56:35.994Z,103417.47
2019-01-03T13:59:05.249Z,103418.28
2019-01-03T14:01:34.398Z,103412.64
2019-01-03T14:04:03.595Z,103413.98
2019-01-03T14:06:32.852Z,103417.51
2019-01-03T14:09:02.998Z,103422.75
2019-01-03T14:11:32.167Z,103423.16
2019-01-03T14:14:01.323Z,103427.52
2019-01-03T14:16:30.518Z,103423.62
2019-01-03T14:18:59.741Z,103431.84
2019-01-03T14:21:28.898Z,103437.91
2019-01-03T14:23:58.092Z,103434.89
2019-01-03T14:26:27.346Z,103435.80
2019-01-03T14:28:56.600Z,103446.66
2019-01-03T14:31:25.878Z,103439.27
2019-01-03T14:33:55.014Z,103437.97
2019-01-03T14:36:24.153Z,103435.80
2019-01-03T14:38:53.323Z,103439.70
2019-01-03T14:41:22.507Z,103438.40
2019-01-03T14:43:51.652Z,103448.78
2019-01-03T14:46:20.812Z,103456.13
2019-01-03T14:48:50.073Z,103451.81
2019-01-03T14:51:19.243Z,103454.88
2019-01-03T14:53:48.656Z,103457.03
2019-01-03T14:56:17.850Z,103457.47
2019-01-03T14:58:46.978Z,103465.68
2019-01-03T15:01:16.247Z,103467.41
2019-01-03T15:03:45.384Z,103468.30
2019-01-03T15:06:14.534Z,103476.52
2019-01-03T15:08:43.810Z,103479.08
2019-01-03T15:11:13.026Z,103486.86
2019-01-03T15:13:42.187Z,103482.55
2019-01-03T15:16:11.331Z,103480.84
2019-01-03T15:18:40.562Z,103470.45
2019-01-03T15:21:09.708Z,103477.78
2019-01-03T15:23:39.032Z,103474.34
2019-01-03T15:26:08.169Z,103478.23
2019-01-03T15:28:37.354Z,103484.73
2019-01-03T15:31:06.760Z,103476.94
2019-01-03T15:33:35.893Z,103479.53
2019-01-03T15:36:05.069Z,103474.34
2019-01-03T15:38:34.251Z,103477.80
2019-01-03T15:41:03.453Z,103476.94
2019-01-03T15:43:32.626Z,103486.02
2019-01-03T15:46:01.873Z,103479.95
2019-01-03T15:48:31.013Z,103482.56
2019-01-03T15:51:00.485Z,103494.66
2019-01-03T15:53:29.719Z,103493.36
2019-01-03T15:55:58.868Z,103488.59
2019-01-03T15:58:28.184Z,103488.19
2019-01-03T16:00:57.525Z,103485.14
2019-01-03T16:03:27.006Z,103490.77
2019-01-03T16:05:56.224Z,103497.69
2019-01-03T16:08:25.464Z,103499.39
2019-01-03T16:10:56.741Z,103499.39
2019-01-03T16:13:26.179Z,103490.75
2019-01-03T16:15:55.352Z,103496.37
2019-01-03T16:18:24.494Z,103491.62
2019-01-03T16:20:53.661Z,103491.62
2019-01-03T16:23:23.092Z,103494.18
2019-01-03T16:25:52.308Z,103492.00
2019-01-03T16:28:21.563Z,103494.58
2019-01-03T16:30:50.702Z,103483.33
2019-01-03T16:33:20.025Z,103485.93
2019-01-03T16:35:49.683Z,103485.91
2019-01-03T16:38:19.087Z,103484.59
2019-01-03T16:40:48.330Z,103483.28
2019-01-03T16:43:17.599Z,103494.03
2019-01-03T16:45:46.926Z,103491.43
2019-01-03T16:48:20.676Z,103491.39
2019-01-03T16:50:49.880Z,103497.05
2019-01-03T16:53:19.048Z,103497.44
2019-01-03T16:55:48.239Z,103497.02
2019-01-03T16:58:17.405Z,103508.23
2019-01-03T17:00:46.941Z,103508.23
2019-01-03T17:03:16.196Z,103516.86
2019-01-03T17:05:45.373Z,103519.48
2019-01-03T17:08:14.560Z,103529.41
2019-01-03T17:10:43.753Z,103524.29
2019-01-03T17:13:12.931Z,103519.53
2019-01-03T17:15:42.326Z,103510.02
2019-01-03T17:18:11.556Z,103517.78
2019-01-03T17:20:40.708Z,103519.05
2019-01-03T17:23:10.008Z,103519.89
2019-01-03T17:25:39.159Z,103512.61
2019-01-03T17:28:08.286Z,103510.48
2019-01-03T17:30:37.490Z,103503.14
2019-01-03T17:33:06.759Z,103494.94
2019-01-03T17:35:35.960Z,103500.92
2019-01-03T17:38:05.120Z,103509.97
2019-01-03T17:40:34.274Z,103507.36
2019-01-03T17:43:03.559Z,103515.95
2019-01-03T17:45:32.894Z,103510.30
2019-01-03T17:48:02.085Z,103502.02
2019-01-03T17:50:36.299Z,103504.16
2019-01-03T17:53:02.478Z,103510.62
2019-01-03T17:55:31.648Z,103499.77
2019-01-03T17:58:02.504Z,103496.38
2019-01-03T18:00:31.913Z,103496.78
2019-01-03T18:03:01.175Z,103500.55
2019-01-03T18:05:30.952Z,103499.23
2019-01-03T18:08:02.904Z,103502.21
2019-01-03T18:10:32.164Z,103496.12
2019-01-03T18:13:02.396Z,103502.47
2019-01-03T18:15:31.593Z,103507.64
2019-01-03T18:18:02.185Z,103501.53
2019-01-03T18:20:31.426Z,103500.69
2019-01-03T18:23:00.536Z,103506.69
2019-01-03T18:25:29.717Z,103508.34
2019-01-03T18:27:58.878Z,103498.47
2019-01-03T18:30:28.049Z,103499.25
2019-01-03T18:32:57.239Z,103502.27
2019-01-03T18:35:26.520Z,103496.20
2019-01-03T18:37:56.838Z,103491.91
2019-01-03T18:40:26.291Z,103498.75
2019-01-03T18:42:55.575Z,103497.45
2019-01-03T18:45:28.034Z,103504.35
2019-01-03T18:47:57.219Z,103518.49
2019-01-03T18:50:26.417Z,103512.47
2019-01-03T18:52:55.795Z,103515.52
2019-01-03T18:55:24.968Z,103526.61
2019-01-03T18:57:54.118Z,103532.19
2019-01-03T19:00:23.517Z,103534.34
2019-01-03T19:02:52.806Z,103535.17
2019-01-03T19:05:21.987Z,103535.19
2019-01-03T19:07:51.180Z,103538.52
2019-01-03T19:10:20.523Z,103532.45
2019-01-03T19:12:49.668Z,103530.80
2019-01-03T19:15:19.310Z,103539.73
2019-01-03T19:17:48.619Z,103540.52
2019-01-03T19:20:19.022Z,103543.02
2019-01-03T19:22:49.431Z,103545.08
2019-01-03T19:25:19.499Z,103555.38
2019-01-03T19:27:48.729Z,103555.00
2019-01-03T19:30:18.040Z,103552.41
2019-01-03T19:32:47.221Z,103550.67
2019-01-03T19:35:16.539Z,103551.97
2019-01-03T19:37:46.269Z,103556.23
2019-01-03T19:40:16.092Z,103557.12
2019-01-03T19:42:46.929Z,103560.02
2019-01-03T19:45:16.406Z,103551.38
2019-01-03T19:47:45.695Z,103548.30
2019-01-03T19:50:17.776Z,103555.13
2019-01-03T19:52:47.216Z,103546.13
2019-01-03T19:55:16.612Z,103550.43
2019-01-03T19:57:45.963Z,103554.33
2019-01-03T20:00:16.970Z,103555.47
2019-01-03T20:02:47.262Z,103563.52
2019-01-03T20:05:18.549Z,103563.85
2019-01-03T20:07:48.808Z,103565.41
2019-01-03T20:10:18.423Z,103568.29
2019-01-03T20:12:47.696Z,103566.19
2019-01-03T20:15:17.209Z,103567.45
2019-01-03T20:17:47.124Z,103571.21
2019-01-03T20:20:17.526Z,103566.42
2019-01-03T20:22:47.049Z,103564.81
2019-01-03T20:25:16.587Z,103559.08
2019-01-03T20:27:46.046Z,103556.26
2019-01-03T20:30:15.537Z,103555.60
2019-01-03T20:32:45.523Z,103553.10
2019-01-03T20:35:15.186Z,103552.60
2019-01-03T20:37:45.897Z,103546.58
2019-01-03T20:40:15.783Z,103558.63
2019-01-03T20:42:45.332Z,103560.69
2019-01-03T20:45:15.154Z,103554.71
2019-01-03T20:47:44.419Z,103553.95
2019-01-03T20:50:16.593Z,103562.42
2019-01-03T20:52:46.015Z,103565.73
2019-01-03T20:55:17.170Z,103560.52
2019-01-03T20:57:46.413Z,103560.77
2019-01-03T21:00:17.388Z,103559.52
2019-01-03T21:02:58.057Z,103557.12
2019-01-03T21:05:27.598Z,103557.97
2019-01-03T21:07:57.135Z,103555.45
2019-01-03T21:10:26.871Z,103563.30
2019-01-03T21:12:57.031Z,103562.16
2019-01-03T21:15:26.813Z,103566.32
2019-01-03T21:17:57.083Z,103563.84
2019-01-03T21:20:26.393Z,103569.27
2019-01-03T21:22:55.977Z,103573.75
2019-01-03T21:25:25.576Z,103567.00
2019-01-03T21:27:55.039Z,103572.34
2019-01-03T21:30:24.509Z,103574.56
2019-01-03T21:32:55.051Z,103578.45
2019-01-03T21:35:24.778Z,103575.14
2019-01-03T21:37:55.203Z,103575.59
2019-01-03T21:40:24.748Z,103576.95
2019-01-03T21:42:56.250Z,103570.95
2019-01-03T21:45:25.577Z,103574.47
2019-01-03T21:47:54.789Z,103574.03
2019-01-03T21:50:24.117Z,103572.23
2019-01-03T21:52:54.665Z,103564.72
2019-01-03T21:55:24.220Z,103565.46
2019-01-03T21:57:55.033Z,103555.70
2019-01-03T22:00:24.366Z,103547.39
2019-01-03T22:02:54.826Z,103548.95
2019-01-03T22:05:24.092Z,103548.89
2019-01-03T22:07:53.404Z,103551.31
2019-01-03T22:10:23.313Z,103542.66
2019-01-03T22:12:52.696Z,103552.13
2019-01-03T22:15:21.889Z,103558.61
2019-01-03T22:17:51.126Z,103557.42
2019-01-03T22:20:20.613Z,103555.13
2019-01-03T22:22:49.817Z,103552.45
2019-01-03T22:25:19.019Z,103538.15
2019-01-03T22:27:48.239Z,103536.02
2019-01-03T22:30:18.114Z,103528.72
2019-01-03T22:32:47.275Z,103527.47
2019-01-03T22:35:16.453Z,103532.65
2019-01-03T22:37:45.599Z,103532.58
2019-01-03T22:40:14.834Z,103527.41
2019-01-03T22:42:44.334Z,103531.23
2019-01-03T22:45:13.501Z,103528.70
2019-01-03T22:47:42.684Z,103524.80
2019-01-03T22:50:12.173Z,103521.53
2019-01-03T22:52:41.324Z,103516.77
2019-01-03T22:55:10.506Z,103514.61
2019-01-03T22:57:39.812Z,103512.36
2019-01-03T23:00:33.122Z,103508.15
2019-01-03T23:03:02.492Z,103507.80
2019-01-03T23:05:31.651Z,103511.45
2019-01-03T23:08:02.508Z,103507.56
2019-01-03T23:10:31.812Z,103514.45
2019-01-03T23:13:02.142Z,103520.49
2019-01-03T23:15:31.254Z,103527.00
2019-01-03T23:18:00.555Z,103528.34
2019-01-03T23:20:29.696Z,103526.09
2019-01-03T23:22:58.965Z,103535.06
2019-01-03T23:25:28.476Z,103531.16
2019-01-03T23:27:57.753Z,103529.78
2019-01-03T23:30:26.901Z,103519.93
2019-01-03T23:32:56.207Z,103516.39
2019-01-03T23:35:25.395Z,103513.30
2019-01-03T23:37:54.576Z,103511.52
2019-01-03T23:40:23.782Z,103509.30
2019-01-03T23:42:53.030Z,103505.86
2019-01-03T23:45:24.239Z,103511.84
2019-01-03T23:47:58.105Z,103517.58
2019-01-03T23:50:32.353Z,103513.37
2019-01-03T23:53:01.489Z,103515.58
2019-01-03T23:55:33.027Z,103517.43
2019-01-03T23:58:02.621Z,103517.05
